createdAt,value
2023-03-13T00:01:36.624Z,5.07
2023-03-13T00:04:04.085Z,5.65
2023-03-13T00:06:34.362Z,5.88
2023-03-13T00:09:03.202Z,5.20
2023-03-13T00:11:30.587Z,5.03
2023-03-13T00:13:59.763Z,5.03
2023-03-13T00:16:27.999Z,4.63
2023-03-13T00:18:57.147Z,5.13
2023-03-13T00:21:27.464Z,4.60
2023-03-13T00:23:55.530Z,5.00
2023-03-13T00:26:26.028Z,4.43
2023-03-13T00:28:54.203Z,4.38
2023-03-13T00:31:30.015Z,4.15
2023-03-13T00:34:00.235Z,4.70
2023-03-13T00:36:30.664Z,4.40
2023-03-13T00:38:59.230Z,4.20
2023-03-13T00:41:29.868Z,4.53
2023-03-13T00:43:57.775Z,4.85
2023-03-13T00:46:27.965Z,4.60
2023-03-13T00:48:56.201Z,4.82
2023-03-13T00:51:27.450Z,4.15
2023-03-13T00:53:57.405Z,5.05
2023-03-13T00:56:24.977Z,4.60
2023-03-13T00:58:53.005Z,4.50
2023-03-13T01:01:26.339Z,4.65
2023-03-13T01:04:01.447Z,4.05
2023-03-13T01:06:33.205Z,4.43
2023-03-13T01:09:01.600Z,4.90
2023-03-13T01:11:31.753Z,4.72
2023-03-13T01:14:02.002Z,4.13
2023-03-13T01:16:32.114Z,4.25
2023-03-13T01:19:01.743Z,4.40
2023-03-13T01:21:29.903Z,4.18
2023-03-13T01:23:58.167Z,4.97
2023-03-13T01:26:26.373Z,4.43
2023-03-13T01:28:55.072Z,4.47
2023-03-13T01:31:29.084Z,4.63
2023-03-13T01:34:02.405Z,4.85
2023-03-13T01:36:33.042Z,4.60
2023-03-13T01:39:01.100Z,4.68
2023-03-13T01:41:30.953Z,4.85
2023-03-13T01:43:59.098Z,4.70
2023-03-13T01:46:32.289Z,3.95
2023-03-13T01:49:24.291Z,3.95
2023-03-13T01:52:24.508Z,4.40
2023-03-13T01:55:09.192Z,4.50
2023-03-13T01:57:44.953Z,4.78
2023-03-13T02:00:29.721Z,4.55
2023-03-13T02:03:02.596Z,4.35
2023-03-13T02:05:31.532Z,4.63
2023-03-13T02:08:26.618Z,4.78
2023-03-13T02:11:22.670Z,4.38
2023-03-13T02:13:50.880Z,4.20
2023-03-13T02:16:19.406Z,4.70
2023-03-13T02:18:49.758Z,4.82
2023-03-13T02:21:30.762Z,4.20
2023-03-13T02:24:23.900Z,4.00
2023-03-13T02:26:51.467Z,4.07
2023-03-13T02:29:18.796Z,4.40
2023-03-13T02:31:47.963Z,5.05
2023-03-13T02:34:20.454Z,4.10
2023-03-13T02:36:48.932Z,4.25
2023-03-13T02:39:20.464Z,4.30
2023-03-13T02:41:48.708Z,4.22
2023-03-13T02:44:16.048Z,4.65
2023-03-13T02:46:46.206Z,4.13
2023-03-13T02:49:34.877Z,3.72
2023-03-13T02:52:24.619Z,4.38
2023-03-13T02:54:58.057Z,4.40
2023-03-13T02:57:25.491Z,4.38
2023-03-13T02:59:53.264Z,4.55
2023-03-13T03:02:20.754Z,4.53
2023-03-13T03:04:48.201Z,4.22
2023-03-13T03:07:15.592Z,4.32
2023-03-13T03:09:43.285Z,4.07
2023-03-13T03:12:16.751Z,4.40
2023-03-13T03:14:44.100Z,4.32
2023-03-13T03:17:11.679Z,4.07
2023-03-13T03:19:39.092Z,4.10
2023-03-13T03:22:06.593Z,4.00
2023-03-13T03:24:34.065Z,3.83
2023-03-13T03:27:05.042Z,4.03
2023-03-13T03:29:38.603Z,5.00
2023-03-13T03:32:06.511Z,4.28
2023-03-13T03:34:33.804Z,4.50
2023-03-13T03:37:01.204Z,4.40
2023-03-13T03:39:29.585Z,5.18
2023-03-13T03:41:56.989Z,5.07
2023-03-13T03:44:24.877Z,4.72
2023-03-13T03:46:58.244Z,4.90
2023-03-13T03:49:27.661Z,4.43
2023-03-13T03:51:55.486Z,4.13
2023-03-13T03:54:29.482Z,4.43
2023-03-13T03:56:57.768Z,4.25
2023-03-13T03:59:25.380Z,4.43
2023-03-13T04:01:57.819Z,4.15
2023-03-13T04:04:27.727Z,4.13
2023-03-13T04:07:02.160Z,4.43
2023-03-13T04:09:32.184Z,4.20
2023-03-13T04:12:01.035Z,3.85
2023-03-13T04:14:29.249Z,4.13
2023-03-13T04:16:58.627Z,3.75
2023-03-13T04:19:25.977Z,3.80
2023-03-13T04:21:53.650Z,4.13
2023-03-13T04:24:20.993Z,3.70
2023-03-13T04:26:48.374Z,3.70
2023-03-13T04:29:16.017Z,4.00
2023-03-13T04:31:51.200Z,4.00
2023-03-13T04:34:30.657Z,3.92
2023-03-13T04:37:10.756Z,3.70
2023-03-13T04:39:41.052Z,3.80
2023-03-13T04:42:36.209Z,4.07
2023-03-13T04:45:14.227Z,4.45
2023-03-13T04:48:00.661Z,3.92
2023-03-13T04:50:40.399Z,3.95
2023-03-13T04:53:28.029Z,4.22
2023-03-13T04:56:04.306Z,4.38
2023-03-13T04:58:49.364Z,4.05
2023-03-13T05:01:35.776Z,3.47
2023-03-13T05:04:26.003Z,4.45
2023-03-13T05:07:03.996Z,5.93
2023-03-13T05:09:49.997Z,5.18
2023-03-13T05:12:36.169Z,4.82
2023-03-13T05:15:30.102Z,4.00
2023-03-13T05:18:15.945Z,3.88
2023-03-13T05:20:49.625Z,4.22
2023-03-13T05:23:33.711Z,3.92
2023-03-13T05:26:25.210Z,4.60
2023-03-13T05:29:04.760Z,3.97
2023-03-13T05:31:50.861Z,4.13
2023-03-13T05:34:38.451Z,4.28
2023-03-13T05:37:24.185Z,5.07
2023-03-13T05:40:02.852Z,4.25
2023-03-13T05:42:59.708Z,4.45
2023-03-13T05:45:53.167Z,4.25
2023-03-13T05:48:32.076Z,4.68
2023-03-13T05:51:05.958Z,4.22
2023-03-13T05:53:59.076Z,4.55
2023-03-13T05:56:37.609Z,4.50
2023-03-13T05:59:33.940Z,4.18
2023-03-13T06:02:30.070Z,4.72
2023-03-13T06:04:58.643Z,4.50
2023-03-13T06:07:26.091Z,4.20
2023-03-13T06:09:53.791Z,4.13
2023-03-13T06:12:21.022Z,4.20
2023-03-13T06:14:48.350Z,4.38
2023-03-13T06:17:15.799Z,4.50
2023-03-13T06:19:43.302Z,3.88
2023-03-13T06:22:10.585Z,4.65
2023-03-13T06:24:37.913Z,4.40
2023-03-13T06:27:05.240Z,5.03
2023-03-13T06:29:32.732Z,4.78
2023-03-13T06:32:00.195Z,4.68
2023-03-13T06:34:27.620Z,4.45
2023-03-13T06:36:55.009Z,4.95
2023-03-13T06:39:24.656Z,5.35
2023-03-13T06:41:51.955Z,5.25
2023-03-13T06:44:19.284Z,4.97
2023-03-13T06:46:46.653Z,6.15
2023-03-13T06:49:14.021Z,7.45
2023-03-13T06:51:41.346Z,6.22
2023-03-13T06:54:08.688Z,6.22
2023-03-13T06:56:36.061Z,5.38
2023-03-13T06:59:03.612Z,5.50
2023-03-13T07:01:31.101Z,6.57
2023-03-13T07:03:59.772Z,5.18
2023-03-13T07:06:27.203Z,5.88
2023-03-13T07:08:54.542Z,5.45
2023-03-13T07:11:21.949Z,5.95
2023-03-13T07:13:49.426Z,6.00
2023-03-13T07:16:16.805Z,5.55
2023-03-13T07:18:47.299Z,5.55
2023-03-13T07:21:15.036Z,5.45
2023-03-13T07:23:42.542Z,5.25
2023-03-13T07:26:15.806Z,5.18
2023-03-13T07:28:43.398Z,5.97
2023-03-13T07:31:19.918Z,6.10
2023-03-13T07:33:48.039Z,5.65
2023-03-13T07:36:15.981Z,5.75
2023-03-13T07:38:46.272Z,5.55
2023-03-13T07:41:13.832Z,5.88
2023-03-13T07:43:41.637Z,6.15
2023-03-13T07:46:15.226Z,5.38
2023-03-13T07:48:43.259Z,6.07
2023-03-13T07:51:14.706Z,5.78
2023-03-13T07:53:42.816Z,5.90
2023-03-13T07:56:12.869Z,5.72
2023-03-13T07:58:42.291Z,5.75
2023-03-13T08:01:14.655Z,6.03
2023-03-13T08:03:42.337Z,6.13
2023-03-13T08:06:12.540Z,5.75
2023-03-13T08:08:43.211Z,5.90
2023-03-13T08:11:13.614Z,6.07
2023-03-13T08:13:43.304Z,5.93
2023-03-13T08:16:17.038Z,5.97
2023-03-13T08:18:46.858Z,6.00
2023-03-13T08:21:25.374Z,6.20
2023-03-13T08:23:55.013Z,6.10
2023-03-13T08:26:26.751Z,6.63
2023-03-13T08:28:56.807Z,7.00
2023-03-13T08:31:28.459Z,7.13
2023-03-13T08:33:56.153Z,7.03
2023-03-13T08:36:27.081Z,6.13
2023-03-13T08:38:59.224Z,6.05
2023-03-13T08:41:29.181Z,7.05
2023-03-13T08:43:57.690Z,6.70
2023-03-13T08:46:25.790Z,6.88
2023-03-13T08:48:55.067Z,6.78
2023-03-13T08:51:25.392Z,6.20
2023-03-13T08:53:53.795Z,7.50
2023-03-13T08:56:23.606Z,7.10
2023-03-13T08:58:52.617Z,7.28
2023-03-13T09:01:21.441Z,6.72
2023-03-13T09:03:48.933Z,7.13
2023-03-13T09:06:16.248Z,7.10
2023-03-13T09:08:44.794Z,7.43
2023-03-13T09:11:19.355Z,7.32
2023-03-13T09:13:49.079Z,6.38
2023-03-13T09:16:22.433Z,6.78
2023-03-13T09:18:51.528Z,7.45
2023-03-13T09:21:27.796Z,7.43
2023-03-13T09:23:55.400Z,6.95
2023-03-13T09:26:23.714Z,7.00
2023-03-13T09:28:52.190Z,7.22
2023-03-13T09:31:30.612Z,6.70
2023-03-13T09:33:58.268Z,7.68
2023-03-13T09:36:26.330Z,7.22
2023-03-13T09:38:56.486Z,6.38
2023-03-13T09:41:36.514Z,6.38
2023-03-13T09:44:10.217Z,6.43
2023-03-13T09:46:46.450Z,6.47
2023-03-13T09:49:32.643Z,6.38
2023-03-13T09:52:21.625Z,6.18
2023-03-13T09:55:00.963Z,8.05
2023-03-13T09:57:42.688Z,6.22
2023-03-13T10:00:16.878Z,4.03
2023-03-13T10:02:47.608Z,4.68
2023-03-13T10:05:21.838Z,5.57
2023-03-13T10:07:49.710Z,5.15
2023-03-13T10:10:37.738Z,7.18
2023-03-13T10:13:32.245Z,5.78
2023-03-13T10:16:07.049Z,5.15
2023-03-13T10:18:34.497Z,5.38
2023-03-13T10:21:16.367Z,5.80
2023-03-13T10:23:52.097Z,5.55
2023-03-13T10:26:24.781Z,6.75
2023-03-13T10:28:52.195Z,7.70
2023-03-13T10:31:33.566Z,6.65
2023-03-13T10:34:08.317Z,7.47
2023-03-13T10:36:49.970Z,7.38
2023-03-13T10:39:19.608Z,6.95
2023-03-13T10:41:48.967Z,6.47
2023-03-13T10:44:21.969Z,6.18
2023-03-13T10:46:51.113Z,5.68
2023-03-13T10:49:21.071Z,5.35
2023-03-13T10:51:54.634Z,5.28
2023-03-13T10:54:35.224Z,5.90
2023-03-13T10:57:29.831Z,6.07
2023-03-13T10:59:58.187Z,7.40
2023-03-13T11:02:32.310Z,6.82
2023-03-13T11:04:59.937Z,6.75
2023-03-13T11:07:34.201Z,6.53
2023-03-13T11:10:03.004Z,5.88
2023-03-13T11:12:35.019Z,6.18
2023-03-13T11:17:39.587Z,5.75
2023-03-13T11:20:12.652Z,6.20
2023-03-13T11:22:43.057Z,6.05
2023-03-13T11:25:23.934Z,5.22
2023-03-13T11:27:54.275Z,4.43
2023-03-13T11:30:40.107Z,4.35
2023-03-13T11:33:35.197Z,4.55
2023-03-13T11:36:25.800Z,4.50
2023-03-13T11:39:23.075Z,6.60
2023-03-13T11:42:19.534Z,6.15
2023-03-13T11:45:17.578Z,13.25
2023-03-13T11:47:53.851Z,6.97
2023-03-13T11:50:37.675Z,11.77
2023-03-13T11:53:26.231Z,5.13
2023-03-13T11:55:56.609Z,5.00
2023-03-13T11:58:39.345Z,4.15
2023-03-13T12:01:11.806Z,3.78
2023-03-13T12:03:42.378Z,4.72
2023-03-13T12:06:29.510Z,4.40
2023-03-13T12:09:20.961Z,5.40
2023-03-13T12:12:29.397Z,6.40
2023-03-13T12:15:00.204Z,6.00
2023-03-13T12:17:27.506Z,6.40
2023-03-13T12:20:21.960Z,5.65
2023-03-13T12:23:17.188Z,5.18
2023-03-13T12:25:47.787Z,4.78
2023-03-13T12:28:24.084Z,4.90
2023-03-13T12:31:09.481Z,5.13
2023-03-13T12:33:41.072Z,5.05
2023-03-13T12:36:14.507Z,12.82
2023-03-13T12:38:55.578Z,27.83
2023-03-13T12:41:41.914Z,4.97
2023-03-13T12:44:15.989Z,5.07
2023-03-13T12:47:02.367Z,5.18
2023-03-13T12:50:02.754Z,4.68
2023-03-13T12:52:39.243Z,4.35
2023-03-13T12:55:21.551Z,4.20
2023-03-13T13:00:37.299Z,4.35
2023-03-13T13:03:38.336Z,4.40
2023-03-13T13:06:14.677Z,4.32
2023-03-13T13:08:46.888Z,4.07
2023-03-13T13:11:39.181Z,4.28
2023-03-13T13:16:52.178Z,4.53
2023-03-13T13:19:25.455Z,3.42
2023-03-13T13:22:30.273Z,4.93
2023-03-13T13:24:59.998Z,4.00
2023-03-13T13:27:34.474Z,4.07
2023-03-13T13:30:03.687Z,4.15
2023-03-13T13:32:42.659Z,3.92
2023-03-13T13:35:12.747Z,3.95
2023-03-13T13:37:40.706Z,3.83
2023-03-13T13:40:21.951Z,4.38
2023-03-13T13:42:52.537Z,4.10
2023-03-13T13:45:27.632Z,4.43
2023-03-13T13:48:28.399Z,4.07
2023-03-13T13:51:18.782Z,4.43
2023-03-13T13:53:56.062Z,4.22
2023-03-13T13:56:37.362Z,4.40
2023-03-13T13:59:24.839Z,4.83
2023-03-13T14:02:04.322Z,4.50
2023-03-13T14:04:37.583Z,4.40
2023-03-13T14:07:07.747Z,3.97
2023-03-13T14:10:02.088Z,4.85
2023-03-13T14:12:38.349Z,4.28
2023-03-13T14:15:12.182Z,4.40
2023-03-13T14:17:42.238Z,4.50
2023-03-13T14:20:30.972Z,4.32
2023-03-13T14:23:01.857Z,3.90
2023-03-13T14:25:48.066Z,4.53
2023-03-13T14:28:27.199Z,4.20
2023-03-13T14:30:58.060Z,4.57
2023-03-13T14:33:29.799Z,4.63
2023-03-13T14:35:57.930Z,4.35
2023-03-13T14:38:29.976Z,4.07
2023-03-13T14:40:57.328Z,4.78
2023-03-13T14:43:41.252Z,4.55
2023-03-13T14:46:30.619Z,4.57
2023-03-13T14:49:06.515Z,4.45
2023-03-13T14:51:39.527Z,4.60
2023-03-13T14:54:24.745Z,4.95
2023-03-13T14:57:11.347Z,5.05
2023-03-13T14:59:38.852Z,4.28
2023-03-13T15:02:23.189Z,4.55
2023-03-13T15:04:59.374Z,4.63
2023-03-13T15:07:38.897Z,4.80
2023-03-13T15:10:24.166Z,4.88
2023-03-13T15:12:52.501Z,5.22
2023-03-13T15:15:19.819Z,5.07
2023-03-13T15:17:47.326Z,4.53
2023-03-13T15:20:15.875Z,4.65
2023-03-13T15:22:46.178Z,4.80
2023-03-13T15:25:23.102Z,5.50
2023-03-13T15:27:50.536Z,5.40
2023-03-13T15:30:20.513Z,5.30
2023-03-13T15:32:48.806Z,5.18
2023-03-13T15:35:24.125Z,5.03
2023-03-13T15:37:51.650Z,4.90
2023-03-13T15:40:19.939Z,4.82
2023-03-13T15:42:47.547Z,4.53
2023-03-13T15:45:14.891Z,5.07
2023-03-13T15:47:42.336Z,4.72
2023-03-13T15:50:14.292Z,4.88
2023-03-13T15:52:41.704Z,5.07
2023-03-13T15:55:11.513Z,5.03
2023-03-13T15:57:44.256Z,4.20
2023-03-13T16:00:22.523Z,4.68
2023-03-13T16:02:49.994Z,4.18
2023-03-13T16:05:18.013Z,4.40
2023-03-13T16:07:45.421Z,4.13
2023-03-13T16:10:25.001Z,4.45
2023-03-13T16:12:53.784Z,4.20
2023-03-13T16:15:21.677Z,4.32
2023-03-13T16:17:49.086Z,4.03
2023-03-13T16:20:19.284Z,4.85
2023-03-13T16:22:46.749Z,4.18
2023-03-13T16:25:14.479Z,4.28
2023-03-13T16:27:42.152Z,4.38
2023-03-13T16:30:26.840Z,4.40
2023-03-13T16:32:54.384Z,4.03
2023-03-13T16:35:22.579Z,4.80
2023-03-13T16:37:50.949Z,4.07
2023-03-13T16:40:21.470Z,5.03
2023-03-13T16:42:48.920Z,5.20
2023-03-13T16:45:16.929Z,4.80
2023-03-13T16:47:45.260Z,4.22
2023-03-13T16:50:37.925Z,4.78
2023-03-13T16:53:05.388Z,5.15
2023-03-13T16:55:36.470Z,4.72
2023-03-13T16:58:04.719Z,4.40
2023-03-13T17:00:33.698Z,5.15
2023-03-13T17:03:01.543Z,4.82
2023-03-13T17:05:29.212Z,4.60
2023-03-13T17:07:56.690Z,4.38
2023-03-13T17:10:27.463Z,5.22
2023-03-13T17:12:54.873Z,4.30
2023-03-13T17:15:23.959Z,4.60
2023-03-13T17:17:52.545Z,4.80
2023-03-13T17:20:26.161Z,4.70
2023-03-13T17:22:56.212Z,4.63
2023-03-13T17:25:24.716Z,4.88
2023-03-13T17:27:52.657Z,4.90
2023-03-13T17:30:22.819Z,5.28
2023-03-13T17:32:50.725Z,15.88
2023-03-13T17:35:19.384Z,6.05
2023-03-13T17:37:47.808Z,5.60
2023-03-13T17:40:24.509Z,9.63
2023-03-13T17:42:51.867Z,6.45
2023-03-13T17:45:19.586Z,6.13
2023-03-13T17:47:49.204Z,5.70
2023-03-13T17:50:16.735Z,6.00
2023-03-13T17:52:44.488Z,5.70
2023-03-13T17:55:12.153Z,6.07
2023-03-13T17:57:40.984Z,6.10
2023-03-13T18:00:14.614Z,6.10
2023-03-13T18:02:41.894Z,5.85
2023-03-13T18:05:09.534Z,6.70
2023-03-13T18:07:36.869Z,5.75
2023-03-13T18:10:10.904Z,6.68
2023-03-13T18:12:38.348Z,6.65
2023-03-13T18:15:06.321Z,6.70
2023-03-13T18:17:33.624Z,6.43
2023-03-13T18:20:00.946Z,8.15
2023-03-13T18:22:28.244Z,6.68
2023-03-13T18:24:55.722Z,6.13
2023-03-13T18:27:23.098Z,6.35
2023-03-13T18:29:50.520Z,6.43
2023-03-13T18:32:18.855Z,8.07
2023-03-13T18:34:46.492Z,8.13
2023-03-13T18:37:33.547Z,7.53
2023-03-13T18:40:01.173Z,9.32
2023-03-13T18:42:28.592Z,8.52
2023-03-13T18:44:55.842Z,8.68
2023-03-13T18:47:27.225Z,9.63
2023-03-13T18:49:55.550Z,9.50
2023-03-13T18:52:22.903Z,8.77
2023-03-13T18:54:50.205Z,8.77
2023-03-13T18:57:19.755Z,8.82
2023-03-13T18:59:47.426Z,9.00
2023-03-13T19:02:16.693Z,8.82
2023-03-13T19:04:44.726Z,7.82
2023-03-13T19:07:19.587Z,7.70
2023-03-13T19:09:47.557Z,7.53
2023-03-13T19:12:15.655Z,6.72
2023-03-13T19:14:43.073Z,6.28
2023-03-13T19:17:20.188Z,5.82
2023-03-13T19:19:47.499Z,5.60
2023-03-13T19:22:14.837Z,5.60
2023-03-13T19:24:42.230Z,4.93
2023-03-13T19:27:14.101Z,5.53
2023-03-13T19:29:41.463Z,6.13
2023-03-13T19:32:14.393Z,6.10
2023-03-13T19:34:42.108Z,6.15
2023-03-13T19:37:11.359Z,6.63
2023-03-13T19:39:38.736Z,6.45
2023-03-13T19:42:07.653Z,6.88
2023-03-13T19:44:35.936Z,6.40
2023-03-13T19:47:06.493Z,6.47
2023-03-13T19:49:33.998Z,6.30
2023-03-13T19:52:01.395Z,6.55
2023-03-13T19:54:28.762Z,6.32
2023-03-13T19:56:56.266Z,6.43
2023-03-13T19:59:26.849Z,5.70
2023-03-13T20:01:55.803Z,6.38
2023-03-13T20:04:25.090Z,6.10
2023-03-13T20:06:52.444Z,6.38
2023-03-13T20:09:21.002Z,5.57
2023-03-13T20:11:48.648Z,5.88
2023-03-13T20:14:16.130Z,5.25
2023-03-13T20:16:45.496Z,5.05
2023-03-13T20:19:13.026Z,5.00
2023-03-13T20:21:42.016Z,6.15
2023-03-13T20:24:10.112Z,5.68
2023-03-13T20:26:37.979Z,6.00
2023-03-13T20:29:05.495Z,5.07
2023-03-13T20:31:33.227Z,5.40
2023-03-13T20:34:00.749Z,5.50
2023-03-13T20:36:28.208Z,6.00
2023-03-13T20:38:55.809Z,6.00
2023-03-13T20:41:25.771Z,5.47
2023-03-13T20:43:53.383Z,5.72
2023-03-13T20:46:21.840Z,5.75
2023-03-13T20:48:49.979Z,5.50
2023-03-13T20:51:17.773Z,5.45
2023-03-13T20:53:45.243Z,5.47
2023-03-13T20:56:12.643Z,6.00
2023-03-13T20:58:40.612Z,5.78
2023-03-13T21:01:08.303Z,6.20
2023-03-13T21:03:36.437Z,5.55
2023-03-13T21:06:14.982Z,6.15
2023-03-13T21:08:42.870Z,6.05
2023-03-13T21:11:15.729Z,11.07
2023-03-13T21:13:43.101Z,6.93
2023-03-13T21:16:11.278Z,6.00
2023-03-13T21:18:39.021Z,5.38
2023-03-13T21:21:09.838Z,5.93
2023-03-13T21:23:37.435Z,6.28
2023-03-13T21:26:05.505Z,6.47
2023-03-13T21:28:33.366Z,6.32
2023-03-13T21:31:11.615Z,5.95
2023-03-13T21:33:40.330Z,5.85
2023-03-13T21:36:12.269Z,6.25
2023-03-13T21:38:39.922Z,6.47
2023-03-13T21:41:12.246Z,5.85
2023-03-13T21:43:43.774Z,6.75
2023-03-13T21:46:13.978Z,6.60
2023-03-13T21:48:43.143Z,7.28
2023-03-13T21:51:11.343Z,7.15
2023-03-13T21:53:42.026Z,7.82
2023-03-13T21:56:15.023Z,8.18
2023-03-13T21:58:44.079Z,8.23
2023-03-13T22:01:12.914Z,7.75
2023-03-13T22:03:40.658Z,8.18
2023-03-13T22:06:16.468Z,8.52
2023-03-13T22:08:44.541Z,9.18
2023-03-13T22:11:11.945Z,9.27
2023-03-13T22:13:39.599Z,9.30
2023-03-13T22:16:07.747Z,9.55
2023-03-13T22:18:35.719Z,9.65
2023-03-13T22:21:03.509Z,9.57
2023-03-13T22:23:30.874Z,10.25
2023-03-13T22:25:58.920Z,10.38
2023-03-13T22:28:26.497Z,9.82
2023-03-13T22:30:53.766Z,9.45
2023-03-13T22:33:21.111Z,9.85
2023-03-13T22:35:52.619Z,10.00
2023-03-13T22:38:20.685Z,9.50
2023-03-13T22:40:49.112Z,10.20
2023-03-13T22:43:16.502Z,9.40
2023-03-13T22:45:43.859Z,9.65
2023-03-13T22:48:11.166Z,9.73
2023-03-13T22:50:38.475Z,11.07
2023-03-13T22:53:05.805Z,9.77
2023-03-13T22:55:33.477Z,10.35
2023-03-13T22:58:01.062Z,10.77
2023-03-13T23:00:28.588Z,10.98
2023-03-13T23:02:56.046Z,10.82
2023-03-13T23:05:23.489Z,11.00
2023-03-13T23:07:50.922Z,10.32
2023-03-13T23:10:18.854Z,10.73
2023-03-13T23:12:46.198Z,10.98
2023-03-13T23:15:13.624Z,11.18
2023-03-13T23:17:40.993Z,11.15
2023-03-13T23:20:12.969Z,11.15
2023-03-13T23:25:09.381Z,10.35
2023-03-13T23:27:37.159Z,11.57
2023-03-13T23:30:07.030Z,10.80
2023-03-13T23:32:39.481Z,11.07
2023-03-13T23:35:08.065Z,10.65
2023-03-13T23:37:35.657Z,11.60
2023-03-13T23:40:05.192Z,11.30
2023-03-13T23:42:32.551Z,11.65
2023-03-13T23:45:02.344Z,11.68
2023-03-13T23:47:30.184Z,11.82
2023-03-13T23:49:57.533Z,11.82
2023-03-13T23:52:24.899Z,10.73
2023-03-13T23:54:52.951Z,11.40
2023-03-13T23:57:20.408Z,11.90
2023-03-13T23:59:49.111Z,12.02
